Data for 07/26/2016

Time Sea-Level Adjusted Pressure Absolute Pressure Temperature Relative Humidity Dew Point   
(mb) (inHg) (mb) (inHg) (C) (F) (%) (C) (F)
00:05 1022 30.18 851 25.13 20.4 68.8 33 3.7 38.6
00:10 1022 30.18 851 25.13 20.6 69 33 4 39.2
00:15 1022 30.18 851 25.13 20.3 68.5 34 4.3 39.7
00:20 1022 30.18 851 25.13 20.1 68.1 34 4 39.2
00:25 1022 30.18 851 25.13 20 68.1 34 3.9 39.1
00:30 1022 30.18 852 25.16 20 68.1 34 3.8 38.9
00:35 1022 30.18 851 25.13 20 68.1 35 4.2 39.5
00:40 1022 30.18 851 25.13 20 68 35 4.2 39.6
00:45 1022 30.18 851 25.13 19.9 67.9 35 4.3 39.8
00:50 1022 30.18 851 25.13 20 68.1 36 4.6 40.3
00:55 1022 30.18 851 25.13 20.2 68.4 36 5 41.1
01:00 1022 30.18 851 25.13 20.4 68.6 37 5.3 41.5
01:05 1022 30.18 851 25.13 20.4 68.6 38 5.5 42
01:10 1022 30.18 851 25.13 20.4 68.7 38 5.7 42.3
01:15 1022 30.18 851 25.13 20.3 68.6 38 5.8 42.4
01:20 1022 30.18 851 25.13 20.3 68.5 39 6 42.7
01:25 1022 30.18 851 25.13 20.1 68.2 40 6.1 43
01:30 1022 30.18 851 25.13 20 68 40 6 42.9
01:35 1022 30.18 851 25.13 20 68 40 6.1 43
01:40 1022 30.18 851 25.13 19.9 67.7 40 6 42.9
01:45 1022 30.18 851 25.13 19.8 67.7 40 6.1 43
01:50 1022 30.18 851 25.13 19.8 67.6 40 6.1 43
01:55 1022 30.18 851 25.13 19.8 67.6 41 6.1 43
02:00 1022 30.18 851 25.13 19.7 67.5 41 6.2 43.1
02:05 1022 30.18 851 25.13 19.7 67.4 41 6.1 43
02:10 1022 30.18 851 25.13 19.6 67.3 41 6.2 43.1
02:15 1022 30.18 851 25.13 19.6 67.2 41 6.2 43.1
02:20 1022 30.18 851 25.13 19.5 67.1 42 6.3 43.3
02:25 1022 30.18 851 25.13 19.3 66.8 42 6.2 43.2
02:30 1021 30.15 851 25.13 19.3 66.8 42 6.1 43
02:35 1021 30.15 851 25.13 19.3 66.8 42 6.1 43
02:40 1021 30.15 851 25.13 19.4 66.8 41 5.9 42.7
02:45 1021 30.15 851 25.13 19.4 66.9 41 5.9 42.7
02:50 1021 30.15 850 25.1 19.3 66.7 41 5.9 42.7
02:55 1021 30.15 850 25.1 19.2 66.6 42 6 42.9
03:00 1021 30.15 850 25.1 19.1 66.4 42 5.9 42.7
03:05 1021 30.15 850 25.1 19.1 66.5 42 5.9 42.6
03:10 1021 30.15 850 25.1 19.1 66.3 42 6 42.7
03:15 1021 30.15 850 25.1 18.9 66 42 6 42.8
03:20 1021 30.15 851 25.13 18.7 65.6 43 5.9 42.7
03:25 1021 30.15 851 25.13 18.2 64.8 43 5.7 42.3
03:30 1021 30.15 851 25.13 17.8 64 44 5.5 42
03:35 1022 30.18 851 25.13 17.6 63.6 44 5.3 41.6
03:40 1022 30.18 851 25.13 17.4 63.3 45 5.6 42
03:45 1022 30.18 851 25.13 17.2 62.9 45 5.3 41.5
03:50 1022 30.18 851 25.13 17.1 62.7 45 5.2 41.3
03:55 1022 30.18 851 25.13 17 62.6 45 5.1 41.2
04:00 1022 30.18 851 25.13 17 62.6 47 5.6 42.1
04:05 1022 30.18 851 25.13 17 62.6 46 5.5 41.9
04:10 1022 30.18 851 25.13 16.9 62.5 47 5.7 42.2
04:15 1022 30.18 851 25.13 16.8 62.3 47 5.5 41.8
04:20 1022 30.18 851 25.13 16.8 62.3 47 5.6 42.1
04:25 1022 30.18 851 25.13 16.7 62.1 48 5.7 42.3
04:30 1022 30.18 851 25.13 16.5 61.8 48 5.5 41.9
04:35 1022 30.18 851 25.13 16.4 61.6 49 5.9 42.7
04:40 1022 30.18 851 25.13 16.2 61.2 50 6 42.8
04:45 1022 30.18 851 25.13 15.8 60.5 53 6.4 43.5
04:50 1022 30.18 851 25.13 15.4 59.6 54 6.1 43
04:55 1022 30.18 851 25.13 15.2 59.3 54 5.9 42.7
05:00 1022 30.18 851 25.13 15.1 59.1 55 6.2 43.1
05:05 1022 30.18 851 25.13 14.8 58.6 56 6.2 43.2
05:10 1022 30.18 851 25.13 14.5 58 58 6.3 43.4
05:15 1022 30.18 851 25.13 14.3 57.8 59 6.6 43.8
05:20 1022 30.18 852 25.16 13.9 57 61 6.5 43.7
05:25 1022 30.18 852 25.16 13.6 56.5 60 6.1 43
05:30 1022 30.18 852 25.16 13.7 56.6 60 6.1 43
05:35 1022 30.18 852 25.16 13.9 57 58 5.9 42.6
05:40 1022 30.18 852 25.16 13.9 57.1 59 6.1 43
05:45 1022 30.18 852 25.16 13.6 56.6 60 6 42.8
05:50 1022 30.18 852 25.16 13.6 56.4 58 5.4 41.8
05:55 1022 30.18 852 25.16 14.1 57.3 56 5.6 42.1
06:00 1022 30.18 852 25.16 14.3 57.7 56 5.8 42.4
06:05 1022 30.18 852 25.16 14.4 57.8 56 5.9 42.5
06:10 1022 30.18 852 25.16 14.5 58.2 56 6 42.9
06:15 1023 30.21 852 25.16 14.8 58.6 56 6.1 43
06:20 1023 30.21 852 25.16 15.2 59.4 54 6 42.9
06:25 1023 30.21 852 25.16 15.7 60.2 52 6 42.8
06:30 1023 30.21 852 25.16 16.4 61.6 51 6.4 43.4
06:35 1023 30.21 852 25.16 16.6 61.8 51 6.4 43.6
06:40 1023 30.21 852 25.16 16.3 61.3 51 6.3 43.4
06:45 1023 30.21 852 25.16 16.7 62 50 6.3 43.3
06:50 1023 30.21 852 25.16 16.9 62.3 50 6.4 43.4
06:55 1023 30.21 852 25.16 17.3 63.2 48 6.4 43.6
07:00 1023 30.21 852 25.16 17.6 63.6 47 6.1 43
07:05 1023 30.21 852 25.16 17.9 64.3 50 7.4 45.4
07:10 1023 30.21 852 25.16 18.3 65 47 6.8 44.3
07:15 1023 30.21 852 25.16 18.3 65 46 6.6 43.9
07:20 1023 30.21 852 25.16 18.6 65.5 47 7.1 44.8
07:25 1023 30.21 852 25.16 18.8 65.8 45 6.8 44.2
07:30 1023 30.21 852 25.16 19.2 66.6 44 6.8 44.3
07:35 1023 30.21 852 25.16 19.2 66.5 43 6.4 43.5
07:40 1023 30.21 852 25.16 19.7 67.5 41 6.2 43.2
07:45 1023 30.21 852 25.16 20.5 68.8 39 6.1 43
07:50 1023 30.21 852 25.16 20.5 68.8 38 5.9 42.6
07:55 1023 30.21 852 25.16 21 69.8 37 6.1 43
08:00 1023 30.21 852 25.16 21.7 71 35 5.8 42.4
08:05 1023 30.21 852 25.16 22.1 71.8 34 5.7 42.3
08:10 1023 30.21 852 25.16 22.3 72.1 34 6 42.8
08:15 1023 30.21 852 25.16 22.2 72 34 5.6 42.1
08:20 1023 30.21 852 25.16 22.1 71.8 34 5.6 42.1
08:25 1023 30.21 852 25.16 22.6 72.7 33 5.9 42.7
08:30 1023 30.21 852 25.16 22.9 73.2 33 5.8 42.4
08:35 1023 30.21 852 25.16 22.2 72 34 5.7 42.3
08:40 1023 30.21 852 25.16 21.8 71.2 35 6 42.8
08:45 1023 30.21 852 25.16 22 71.6 33 5.3 41.5
08:50 1023 30.21 852 25.16 22.8 73 32 5.5 41.9
08:55 1023 30.21 852 25.16 22.8 73 33 6.1 42.9
09:00 1023 30.21 852 25.16 22.7 72.9 32 5.5 41.9
09:05 1023 30.21 852 25.16 23 73.3 32 5.4 41.7
09:10 1023 30.21 852 25.16 23.3 74 33 6.2 43.1
09:15 1023 30.21 852 25.16 23.3 73.9 31 5.4 41.7
09:20 1023 30.21 852 25.16 23.6 74.5 30 5.4 41.7
09:25 1023 30.21 852 25.16 24.3 75.7 29 5.3 41.6
09:30 1023 30.21 852 25.16 24.8 76.6 29 5.6 42.1
09:35 1023 30.21 852 25.16 24.2 75.6 31 6.2 43.2
09:40 1023 30.21 852 25.16 24.5 76 28 5.1 41.2
09:45 1023 30.21 852 25.16 25.4 77.7 27 5.1 41.3
09:50 1023 30.21 852 25.16 24.3 75.7 30 5.9 42.6
09:55 1023 30.21 852 25.16 23.7 74.7 30 5.2 41.4
10:00 1023 30.21 852 25.16 24.6 76.2 28 5.3 41.5
10:05 1023 30.21 852 25.16 24.6 76.3 28 5.2 41.3
10:10 1023 30.21 852 25.16 25.1 77.1 27 5.3 41.5
10:15 1023 30.21 852 25.16 25.6 78.1 27 5.6 42.1
10:20 1023 30.21 852 25.16 25.7 78.3 26 5.1 41.1
10:25 1023 30.21 852 25.16 25.8 78.5 27 5.7 42.3
10:30 1023 30.21 852 25.16 25.4 77.8 27 5.1 41.1
10:35 1023 30.21 852 25.16 26.2 79.2 26 5.2 41.4
10:40 1023 30.21 852 25.16 25.5 77.9 26 5.1 41.2
10:45 1023 30.21 852 25.16 26.1 78.9 25 4.6 40.2
10:50 1022 30.18 852 25.16 25.8 78.4 26 5 41
10:55 1022 30.18 852 25.16 27.2 80.9 24 5.2 41.4
11:00 1022 30.18 852 25.16 26.5 79.6 24 4.6 40.2
11:05 1022 30.18 852 25.16 26.7 80.1 24 4.5 40.1
11:10 1022 30.18 852 25.16 27.5 81.5 21 3.3 38
11:15 1022 30.18 852 25.16 27.2 80.9 23 4.4 39.8
11:20 1022 30.18 852 25.16 28.1 82.5 22 4.4 40
11:25 1022 30.18 852 25.16 28.3 82.9 22 4.6 40.3
11:30 1022 30.18 851 25.13 28.2 82.8 22 4.5 40.1
11:35 1022 30.18 851 25.13 28.6 83.5 21 4.5 40
11:40 1022 30.18 851 25.13 28.5 83.2 21 4.3 39.8
11:45 1022 30.18 851 25.13 28.5 83.2 21 4.1 39.3
11:50 1022 30.18 851 25.13 28.4 83 21 4.6 40.3
11:55 1022 30.18 851 25.13 28.7 83.6 21 4.2 39.6
12:00 1022 30.18 851 25.13 29.2 84.5 21 5.2 41.4
12:05 1022 30.18 851 25.13 29.2 84.5 21 5.2 41.3
12:10 1022 30.18 851 25.13 29.1 84.5 19 3.4 38.1
12:15 1022 30.18 851 25.13 28.3 82.9 16 0.2 32.4
12:20 1022 30.18 851 25.13 28.2 82.8 18 2.2 35.9
12:25 1022 30.18 851 25.13 28 82.3 15 -0.9 30.4
12:30 1022 30.18 851 25.13 28.6 83.6 15 0.2 32.4
12:35 1022 30.18 851 25.13 28.9 84 15 -0 31.9
12:40 1022 30.18 851 25.13 28.6 83.5 15 0 32
12:40 1022 30.18 851 25.13 28.6 83.5 15 0 32
12:45 1022 30.18 851 25.13 29.8 85.6 14 -0.6 30.9
12:50 1021 30.15 851 25.13 30.3 86.5 14 0.3 32.5
12:55 1021 30.15 851 25.13 30.6 87.1 14 0.1 32.2
13:00 1021 30.15 851 25.13 30.3 86.6 14 0.1 32.2
13:05 1021 30.15 850 25.1 30.6 87.1 14 0.1 32.2
13:10 1021 30.15 850 25.1 30.4 86.7 13 -0.6 30.8
13:15 1021 30.15 850 25.1 30.6 87.1 14 0.5 32.9
13:20 1021 30.15 850 25.1 30.2 86.3 14 -0.2 31.7
13:25 1021 30.15 850 25.1 29.1 84.3 14 -0.3 31.4
13:30 1021 30.15 850 25.1 30.2 86.4 13 -0.5 31
13:35 1021 30.15 850 25.1 30.8 87.5 13 -0.9 30.4
13:40 1021 30.15 850 25.1 30.9 87.6 12 -1.1 30
13:45 1021 30.15 850 25.1 30.5 86.9 13 -1.1 30
13:50 1021 30.15 850 25.1 30.1 86.2 14 -0.4 31.3
13:55 1021 30.15 850 25.1 31 87.8 13 -0.7 30.8
14:00 1021 30.15 850 25.1 31.2 88.2 12 -1.1 30.1
14:05 1021 30.15 850 25.1 31.7 89.1 12 -0.4 31.4
14:10 1021 30.15 850 25.1 31.5 88.8 12 -1.1 30.1
14:15 1021 30.15 850 25.1 30.8 87.5 12 -1.3 29.7
14:20 1020 30.12 850 25.1 30.9 87.5 11 -2.9 26.8
14:25 1020 30.12 850 25.1 31.5 88.6 12 -1.4 29.5
14:30 1020 30.12 850 25.1 31.8 89.2 12 -0.8 30.5
14:35 1020 30.12 850 25.1 32.3 90.2 11 -1.4 29.5
14:40 1020 30.12 849 25.07 31.8 89.3 12 -0.4 31.3
14:45 1020 30.12 849 25.07 31.2 88.2 12 -1.1 30
14:50 1020 30.12 849 25.07 30.3 86.6 12 -1.8 28.8
14:55 1020 30.12 849 25.07 31.1 88 12 -1.6 29.2
15:00 1020 30.12 849 25.07 31.1 87.9 13 -0.2 31.7
15:05 1020 30.12 849 25.07 31.1 87.9 13 -0.4 31.3
15:10 1020 30.12 849 25.07 30.7 87.3 14 0.3 32.5
15:15 1020 30.12 849 25.07 30.9 87.6 13 -0 31.9
15:20 1020 30.12 849 25.07 30.6 87 13 -0.3 31.4
15:25 1020 30.12 850 25.1 30.3 86.5 13 -0.6 30.8
15:30 1020 30.12 850 25.1 30 85.9 13 -1.1 30.1
15:35 1021 30.15 850 25.1 29.5 85 13 -1.1 30.1
15:40 1021 30.15 850 25.1 29.2 84.5 14 -1 30.2
15:45 1022 30.18 851 25.13 27.3 81.2 21 3.7 38.6
15:50 1022 30.18 851 25.13 25.2 77.3 26 4.7 40.5
15:55 1023 30.21 852 25.16 23.8 74.8 28 4.7 40.4
16:00 1023 30.21 852 25.16 23.4 74 29 4.6 40.3
16:05 1023 30.21 852 25.16 23.3 73.9 32 5.8 42.4
16:10 1023 30.21 852 25.16 22.1 71.9 37 6.9 44.4
16:15 1023 30.21 852 25.16 21.6 70.9 32 4.6 40.3
16:20 1023 30.21 852 25.16 22.7 72.9 26 2.6 36.6
16:25 1023 30.21 852 25.16 24.1 75.4 25 3.3 37.9
16:30 1022 30.18 852 25.16 23.9 75 25 3.2 37.7
16:35 1022 30.18 852 25.16 24.2 75.5 25 3.2 37.8
16:40 1022 30.18 851 25.13 24.6 76.3 25 3.6 38.4
16:45 1022 30.18 851 25.13 24.8 76.6 26 4.1 39.3
16:50 1022 30.18 851 25.13 24.9 76.9 27 4.7 40.4
16:55 1022 30.18 851 25.13 24.3 75.8 28 4.9 40.8
17:00 1022 30.18 851 25.13 24 75.2 28 4.5 40.1
17:05 1022 30.18 851 25.13 24.8 76.6 28 5.5 41.8
17:10 1022 30.18 851 25.13 25.5 78 28 5.9 42.6
17:15 1022 30.18 851 25.13 24.9 76.8 26 4.3 39.7
17:20 1022 30.18 851 25.13 24.9 76.8 26 4.1 39.3
17:25 1022 30.18 851 25.13 25.2 77.3 25 4 39.3
17:30 1022 30.18 851 25.13 25.7 78.3 23 3.5 38.3
17:35 1022 30.18 851 25.13 25.7 78.3 24 3.9 38.9
17:40 1022 30.18 851 25.13 25.6 78 24 3.6 38.5
17:45 1022 30.18 851 25.13 25.8 78.4 24 3.8 38.9
17:50 1022 30.18 851 25.13 26.2 79.2 25 5.1 41.2
17:55 1022 30.18 851 25.13 25.4 77.8 26 5 41
18:00 1022 30.18 851 25.13 25 77.1 28 5.3 41.5
18:05 1022 30.18 851 25.13 24.6 76.4 28 5.4 41.6
18:10 1022 30.18 851 25.13 24.5 76.1 28 5.3 41.5
18:15 1022 30.18 851 25.13 24.2 75.6 28 5 41.1
18:20 1022 30.18 851 25.13 23.9 74.9 31 6.1 42.9
18:25 1022 30.18 851 25.13 23.7 74.6 31 5.7 42.2
18:30 1021 30.15 851 25.13 23.7 74.6 29 4.9 40.8
18:35 1021 30.15 851 25.13 24 75.2 29 5.2 41.4
18:40 1021 30.15 851 25.13 24 75.1 29 5.1 41.1
18:45 1021 30.15 851 25.13 24 75.2 29 5.1 41.1
18:50 1021 30.15 851 25.13 24.2 75.6 28 5 41
18:55 1021 30.15 850 25.1 24.5 76 30 6.2 43.1
19:00 1021 30.15 850 25.1 24.3 75.7 30 5.7 42.2
19:05 1021 30.15 850 25.1 24.2 75.6 30 5.7 42.2
19:10 1021 30.15 850 25.1 24.2 75.5 29 5.3 41.5
19:15 1021 30.15 850 25.1 24.1 75.3 30 5.7 42.2
19:20 1021 30.15 850 25.1 24 75.2 28 4.7 40.4
19:25 1021 30.15 850 25.1 24 75.3 28 4.7 40.5
19:30 1021 30.15 850 25.1 23.9 75.1 29 5.2 41.4
19:35 1021 30.15 850 25.1 23.7 74.6 31 5.6 42.1
19:40 1021 30.15 851 25.13 23.3 73.9 32 6 42.8
19:45 1021 30.15 851 25.13 22.9 73.2 33 5.9 42.6
19:50 1022 30.18 851 25.13 22.7 72.9 33 5.9 42.5
19:55 1022 30.18 851 25.13 22.7 72.9 35 6.6 43.8
20:00 1022 30.18 851 25.13 22.5 72.4 38 7.7 45.8
20:05 1023 30.21 852 25.16 22.1 71.8 39 7.7 45.9
20:10 1023 30.21 852 25.16 21.8 71.2 37 6.8 44.2
20:15 1023 30.21 852 25.16 21.4 70.5 38 6.6 44
20:20 1023 30.21 852 25.16 21.1 69.9 38 6.3 43.3
20:25 1023 30.21 852 25.16 21 69.7 38 6.3 43.3
20:30 1023 30.21 852 25.16 20.8 69.4 37 5.6 42
20:35 1023 30.21 852 25.16 20.5 69 38 6 42.8
20:40 1023 30.21 852 25.16 20.3 68.6 38 5.7 42.3
20:45 1023 30.21 852 25.16 20 68 40 6 42.9
20:50 1023 30.21 852 25.16 19.9 67.7 41 6.5 43.6
20:55 1023 30.21 852 25.16 19.5 67.2 41 6.1 43
21:00 1023 30.21 852 25.16 19.6 67.4 40 6 42.8
21:05 1023 30.21 852 25.16 19.7 67.5 42 6.5 43.7
21:10 1023 30.21 852 25.16 20 68 39 5.6 42.1
21:15 1023 30.21 852 25.16 20 68.1 38 5.6 42.1
21:20 1023 30.21 852 25.16 20 68 39 5.7 42.3
21:25 1023 30.21 852 25.16 19.9 67.8 36 4.7 40.4
21:30 1023 30.21 852 25.16 20.1 68.1 36 4.8 40.6
21:35 1023 30.21 852 25.16 20 68.1 36 4.5 40.2
21:40 1023 30.21 852 25.16 20 68 37 4.9 40.7
21:45 1023 30.21 852 25.16 19.9 67.7 38 5.3 41.5
21:50 1023 30.21 852 25.16 20 67.9 35 4.2 39.6
21:55 1023 30.21 852 25.16 20.2 68.4 34 4 39.2
22:00 1023 30.21 852 25.16 20.5 68.9 34 4.1 39.3
22:05 1023 30.21 852 25.16 20.5 68.8 32 3.5 38.2
22:10 1023 30.21 852 25.16 20.5 69 32 3.5 38.3
22:15 1022 30.18 852 25.16 20.6 69.1 32 3.5 38.3
22:20 1022 30.18 852 25.16 20.4 68.8 33 3.7 38.7
22:25 1023 30.21 852 25.16 20.3 68.5 37 5.4 41.8
22:30 1023 30.21 852 25.16 19.8 67.6 41 6.2 43.2
22:35 1023 30.21 852 25.16 18.8 65.9 44 6.3 43.3
22:40 1023 30.21 852 25.16 18.4 65 44 6 42.7
22:45 1023 30.21 852 25.16 18.3 65 44 6 42.7
22:50 1023 30.21 852 25.16 18 64.4 45 6.1 43
22:55 1023 30.21 852 25.16 17.7 63.8 47 6.2 43.2
23:00 1023 30.21 852 25.16 17.2 63 49 6.4 43.5
23:05 1023 30.21 852 25.16 16.9 62.3 49 6.1 43
23:10 1023 30.21 852 25.16 16.8 62.2 49 6 42.8
23:15 1023 30.21 852 25.16 16.6 61.8 48 5.6 42
23:20 1023 30.21 852 25.16 17 62.6 46 5.3 41.6
23:25 1023 30.21 852 25.16 17.4 63.2 44 5.2 41.4
23:30 1023 30.21 852 25.16 17.3 63.1 44 4.9 40.8
23:35 1023 30.21 852 25.16 17.5 63.5 43 4.9 40.8
23:40 1023 30.21 852 25.16 17.4 63.3 43 4.8 40.7
23:45 1023 30.21 852 25.16 17.2 63 44 5 40.9
23:50 1023 30.21 852 25.16 16.9 62.4 45 4.8 40.7
23:55 1023 30.21 852 25.16 16.8 62.2 45 4.9 40.8
24:00 1023 30.21 852 25.16 16.7 62.1 44 4.6 40.4